sensor_id;sensor_type;location;lat;lon;timestamp;pressure;altitude;pressure_sealevel;temperature;humidity
23433;BME280;41331;45.412;10.992;2022-09-21T00:01:28;101194.28;;;18.28;60.47
23433;BME280;41331;45.412;10.992;2022-09-21T00:04:01;101191.81;;;18.42;59.92
23433;BME280;41331;45.412;10.992;2022-09-21T00:06:32;101198.94;;;18.43;59.63
23433;BME280;41331;45.412;10.992;2022-09-21T00:09:00;101202.03;;;18.22;60.43
23433;BME280;41331;45.412;10.992;2022-09-21T00:11:32;101198.25;;;18.30;60.28
23433;BME280;41331;45.412;10.992;2022-09-21T00:14:01;101200.34;;;18.37;60.03
23433;BME280;41331;45.412;10.992;2022-09-21T00:16:30;101195.50;;;18.30;60.33
23433;BME280;41331;45.412;10.992;2022-09-21T00:18:59;101194.13;;;18.21;60.69
23433;BME280;41331;45.412;10.992;2022-09-21T00:21:26;101191.44;;;18.05;61.33
23433;BME280;41331;45.412;10.992;2022-09-21T00:23:54;101201.28;;;18.06;61.52
23433;BME280;41331;45.412;10.992;2022-09-21T00:26:24;101197.63;;;18.18;60.95
23433;BME280;41331;45.412;10.992;2022-09-21T00:28:57;101202.75;;;18.19;60.87
23433;BME280;41331;45.412;10.992;2022-09-21T00:31:27;101204.50;;;18.27;60.55
23433;BME280;41331;45.412;10.992;2022-09-21T00:33:56;101211.22;;;18.10;61.16
23433;BME280;41331;45.412;10.992;2022-09-21T00:36:25;101217.69;;;18.18;61.34
23433;BME280;41331;45.412;10.992;2022-09-21T00:38:56;101211.22;;;18.10;61.52
23433;BME280;41331;45.412;10.992;2022-09-21T00:41:25;101207.69;;;18.10;61.50
23433;BME280;41331;45.412;10.992;2022-09-21T00:46:44;101201.22;;;18.02;62.15
23433;BME280;41331;45.412;10.992;2022-09-21T00:49:13;101203.53;;;18.00;62.36
23433;BME280;41331;45.412;10.992;2022-09-21T00:51:43;101210.63;;;18.01;62.02
23433;BME280;41331;45.412;10.992;2022-09-21T00:54:15;101207.69;;;18.10;62.24
23433;BME280;41331;45.412;10.992;2022-09-21T00:56:44;101203.97;;;18.02;61.86
23433;BME280;41331;45.412;10.992;2022-09-21T00:59:12;101211.41;;;18.18;61.69
23433;BME280;41331;45.412;10.992;2022-09-21T01:01:41;101205.50;;;18.19;61.56
23433;BME280;41331;45.412;10.992;2022-09-21T01:04:10;101216.91;;;18.18;61.72
23433;BME280;41331;45.412;10.992;2022-09-21T01:06:40;101217.69;;;18.18;61.89
23433;BME280;41331;45.412;10.992;2022-09-21T01:09:08;101212.75;;;18.08;62.28
23433;BME280;41331;45.412;10.992;2022-09-21T01:31:25;101252.78;;;18.21;64.77
23433;BME280;41331;45.412;10.992;2022-09-21T01:33:58;101271.69;;;18.03;68.06
23433;BME280;41331;45.412;10.992;2022-09-21T01:36:32;101278.69;;;17.69;70.51
23433;BME280;41331;45.412;10.992;2022-09-21T01:39:05;101272.13;;;17.58;70.14
23433;BME280;41331;45.412;10.992;2022-09-21T01:41:35;101278.34;;;17.39;71.19
23433;BME280;41331;45.412;10.992;2022-09-21T01:44:11;101286.16;;;17.37;70.39
23433;BME280;41331;45.412;10.992;2022-09-21T01:46:40;101295.75;;;16.99;70.09
23433;BME280;41331;45.412;10.992;2022-09-21T01:49:30;101304.56;;;17.05;69.41
23433;BME280;41331;45.412;10.992;2022-09-21T01:52:36;101309.16;;;17.01;69.44
23433;BME280;41331;45.412;10.992;2022-09-21T01:55:18;101311.91;;;17.01;71.46
23433;BME280;41331;45.412;10.992;2022-09-21T02:00:21;101323.94;;;16.56;74.07
23433;BME280;41331;45.412;10.992;2022-09-21T02:02:51;101321.66;;;16.46;76.82
23433;BME280;41331;45.412;10.992;2022-09-21T02:05:21;101328.88;;;16.50;76.44
23433;BME280;41331;45.412;10.992;2022-09-21T02:07:51;101322.69;;;16.53;77.61
23433;BME280;41331;45.412;10.992;2022-09-21T02:10:25;101327.09;;;16.05;79.06
23433;BME280;41331;45.412;10.992;2022-09-21T02:12:57;101330.84;;;16.01;80.02
23433;BME280;41331;45.412;10.992;2022-09-21T02:15:36;101332.56;;;15.69;80.85
23433;BME280;41331;45.412;10.992;2022-09-21T02:18:15;101340.13;;;15.84;81.73
23433;BME280;41331;45.412;10.992;2022-09-21T02:20:51;101328.56;;;15.78;80.91
23433;BME280;41331;45.412;10.992;2022-09-21T02:23:32;101327.06;;;15.69;81.11
23433;BME280;41331;45.412;10.992;2022-09-21T02:26:25;101331.47;;;15.61;81.06
23433;BME280;41331;45.412;10.992;2022-09-21T02:31:47;101346.69;;;15.59;82.40
23433;BME280;41331;45.412;10.992;2022-09-21T02:34:28;101349.34;;;15.22;84.92
23433;BME280;41331;45.412;10.992;2022-09-21T02:37:37;101348.94;;;15.44;82.89
23433;BME280;41331;45.412;10.992;2022-09-21T02:43:20;101351.09;;;15.39;82.90
23433;BME280;41331;45.412;10.992;2022-09-21T02:46:12;101341.94;;;15.35;83.46
23433;BME280;41331;45.412;10.992;2022-09-21T02:48:51;101352.19;;;15.25;82.84
23433;BME280;41331;45.412;10.992;2022-09-21T02:51:26;101343.06;;;15.21;82.28
23433;BME280;41331;45.412;10.992;2022-09-21T02:53:55;101354.25;;;15.16;82.18
23433;BME280;41331;45.412;10.992;2022-09-21T02:56:25;101344.03;;;15.38;80.71
23433;BME280;41331;45.412;10.992;2022-09-21T02:58:56;101347.34;;;15.10;82.11
23433;BME280;41331;45.412;10.992;2022-09-21T03:01:25;101349.63;;;15.41;80.45
23433;BME280;41331;45.412;10.992;2022-09-21T03:03:54;101353.88;;;15.18;80.95
23433;BME280;41331;45.412;10.992;2022-09-21T03:06:24;101367.84;;;15.25;82.28
23433;BME280;41331;45.412;10.992;2022-09-21T03:08:51;101361.41;;;15.42;79.10
23433;BME280;41331;45.412;10.992;2022-09-21T03:11:19;101349.16;;;15.39;78.04
23433;BME280;41331;45.412;10.992;2022-09-21T03:13:46;101349.16;;;15.39;77.56
23433;BME280;41331;45.412;10.992;2022-09-21T03:16:13;101342.22;;;15.54;78.11
23433;BME280;41331;45.412;10.992;2022-09-21T03:18:41;101349.19;;;15.51;77.69
23433;BME280;41331;45.412;10.992;2022-09-21T03:21:11;101347.25;;;15.19;80.52
23433;BME280;41331;45.412;10.992;2022-09-21T03:23:39;101350.03;;;15.31;79.59
23433;BME280;41331;45.412;10.992;2022-09-21T03:26:07;101349.41;;;15.13;81.43
23433;BME280;41331;45.412;10.992;2022-09-21T03:28:34;101343.72;;;15.18;79.98
23433;BME280;41331;45.412;10.992;2022-09-21T03:31:02;101351.34;;;15.13;79.79
23433;BME280;41331;45.412;10.992;2022-09-21T03:33:29;101352.09;;;15.22;78.46
23433;BME280;41331;45.412;10.992;2022-09-21T03:35:57;101348.22;;;15.35;78.00
23433;BME280;41331;45.412;10.992;2022-09-21T03:38:24;101357.56;;;15.22;78.53
23433;BME280;41331;45.412;10.992;2022-09-21T03:40:52;101359.41;;;15.30;78.63
23433;BME280;41331;45.412;10.992;2022-09-21T03:43:24;101360.41;;;15.25;79.29
23433;BME280;41331;45.412;10.992;2022-09-21T03:45:51;101357.22;;;15.23;79.05
23433;BME280;41331;45.412;10.992;2022-09-21T03:48:19;101357.09;;;15.53;77.69
23433;BME280;41331;45.412;10.992;2022-09-21T03:50:48;101359.13;;;15.44;76.76
23433;BME280;41331;45.412;10.992;2022-09-21T03:53:16;101369.31;;;15.55;75.93
23433;BME280;41331;45.412;10.992;2022-09-21T03:55:44;101355.56;;;15.43;74.78
23433;BME280;41331;45.412;10.992;2022-09-21T03:58:17;101364.94;;;15.42;73.77
23433;BME280;41331;45.412;10.992;2022-09-21T04:00:44;101362.28;;;15.34;74.95
23433;BME280;41331;45.412;10.992;2022-09-21T04:03:12;101368.84;;;15.41;74.63
23433;BME280;41331;45.412;10.992;2022-09-21T04:05:40;101364.69;;;15.35;75.23
23433;BME280;41331;45.412;10.992;2022-09-21T04:08:09;101376.44;;;15.36;76.88
23433;BME280;41331;45.412;10.992;2022-09-21T04:10:38;101376.50;;;15.48;75.09
23433;BME280;41331;45.412;10.992;2022-09-21T04:13:07;101378.25;;;15.52;74.46
23433;BME280;41331;45.412;10.992;2022-09-21T04:15:35;101378.09;;;15.49;73.82
23433;BME280;41331;45.412;10.992;2022-09-21T04:18:02;101376.88;;;15.59;74.38
23433;BME280;41331;45.412;10.992;2022-09-21T04:20:31;101386.97;;;15.34;77.46
23433;BME280;41331;45.412;10.992;2022-09-21T04:22:58;101381.44;;;15.21;78.26
23433;BME280;41331;45.412;10.992;2022-09-21T04:25:26;101384.59;;;15.11;79.89
23433;BME280;41331;45.412;10.992;2022-09-21T04:30:45;101377.31;;;14.94;83.30
23433;BME280;41331;45.412;10.992;2022-09-21T04:33:13;101379.50;;;14.80;85.77
23433;BME280;41331;45.412;10.992;2022-09-21T04:35:40;101393.69;;;14.82;83.40
23433;BME280;41331;45.412;10.992;2022-09-21T04:38:07;101390.56;;;14.71;82.99
23433;BME280;41331;45.412;10.992;2022-09-21T04:40:34;101394.28;;;14.67;86.03
23433;BME280;41331;45.412;10.992;2022-09-21T04:43:02;101382.44;;;14.54;86.17
23433;BME280;41331;45.412;10.992;2022-09-21T04:45:29;101385.72;;;14.68;86.88
23433;BME280;41331;45.412;10.992;2022-09-21T04:47:57;101387.16;;;15.16;80.54
23433;BME280;41331;45.412;10.992;2022-09-21T04:50:24;101389.16;;;15.40;78.17
23433;BME280;41331;45.412;10.992;2022-09-21T04:53:02;101389.50;;;15.39;77.87
23433;BME280;41331;45.412;10.992;2022-09-21T04:55:30;101389.28;;;15.44;77.02
23433;BME280;41331;45.412;10.992;2022-09-21T04:57:58;101398.53;;;15.39;76.81
23433;BME280;41331;45.412;10.992;2022-09-21T05:00:25;101404.16;;;15.43;76.75
23433;BME280;41331;45.412;10.992;2022-09-21T05:02:52;101405.19;;;15.50;75.49
23433;BME280;41331;45.412;10.992;2022-09-21T05:05:20;101422.94;;;15.53;75.29
23433;BME280;41331;45.412;10.992;2022-09-21T05:07:47;101415.25;;;15.46;76.25
23433;BME280;41331;45.412;10.992;2022-09-21T05:10:15;101414.75;;;15.32;78.62
23433;BME280;41331;45.412;10.992;2022-09-21T05:12:42;101426.72;;;15.27;80.18
23433;BME280;41331;45.412;10.992;2022-09-21T05:15:09;101418.53;;;15.40;76.22
23433;BME280;41331;45.412;10.992;2022-09-21T05:17:43;101425.53;;;15.49;76.71
23433;BME280;41331;45.412;10.992;2022-09-21T05:20:10;101423.91;;;15.36;78.83
23433;BME280;41331;45.412;10.992;2022-09-21T05:22:37;101423.28;;;15.31;79.92
23433;BME280;41331;45.412;10.992;2022-09-21T05:25:06;101428.34;;;15.08;82.51
23433;BME280;41331;45.412;10.992;2022-09-21T05:27:33;101433.28;;;14.93;83.43
23433;BME280;41331;45.412;10.992;2022-09-21T05:30:01;101428.53;;;15.02;83.11
23433;BME280;41331;45.412;10.992;2022-09-21T05:32:58;101439.16;;;15.04;83.93
23433;BME280;41331;45.412;10.992;2022-09-21T05:38:02;101441.69;;;15.09;84.03
23433;BME280;41331;45.412;10.992;2022-09-21T05:40:33;101443.25;;;14.98;84.66
23433;BME280;41331;45.412;10.992;2022-09-21T05:43:01;101442.28;;;15.15;83.65
23433;BME280;41331;45.412;10.992;2022-09-21T05:45:29;101445.22;;;15.51;78.95
23433;BME280;41331;45.412;10.992;2022-09-21T05:48:05;101436.28;;;15.75;75.40
23433;BME280;41331;45.412;10.992;2022-09-21T05:50:40;101440.44;;;15.82;73.90
23433;BME280;41331;45.412;10.992;2022-09-21T05:53:34;101440.09;;;15.83;72.61
23433;BME280;41331;45.412;10.992;2022-09-21T05:56:21;101441.63;;;16.05;71.68
23433;BME280;41331;45.412;10.992;2022-09-21T06:04:20;101452.50;;;16.14;69.20
23433;BME280;41331;45.412;10.992;2022-09-21T06:06:47;101444.56;;;16.00;71.74
23433;BME280;41331;45.412;10.992;2022-09-21T06:09:15;101459.81;;;15.97;72.79
23433;BME280;41331;45.412;10.992;2022-09-21T06:11:43;101464.31;;;15.81;74.94
23433;BME280;41331;45.412;10.992;2022-09-21T06:14:10;101462.25;;;15.78;77.25
23433;BME280;41331;45.412;10.992;2022-09-21T06:16:41;101462.81;;;15.71;77.44
23433;BME280;41331;45.412;10.992;2022-09-21T06:19:12;101463.28;;;15.73;76.89
23433;BME280;41331;45.412;10.992;2022-09-21T06:21:40;101473.69;;;15.80;76.16
23433;BME280;41331;45.412;10.992;2022-09-21T06:24:08;101472.31;;;15.74;77.23
23433;BME280;41331;45.412;10.992;2022-09-21T06:26:35;101486.28;;;15.81;77.44
23433;BME280;41331;45.412;10.992;2022-09-21T06:29:03;101489.94;;;15.85;73.88
23433;BME280;41331;45.412;10.992;2022-09-21T06:31:30;101491.03;;;15.93;73.25
23433;BME280;41331;45.412;10.992;2022-09-21T06:33:57;101488.63;;;16.03;74.45
23433;BME280;41331;45.412;10.992;2022-09-21T06:36:25;101500.41;;;15.92;73.70
23433;BME280;41331;45.412;10.992;2022-09-21T06:38:52;101490.75;;;15.86;74.87
23433;BME280;41331;45.412;10.992;2022-09-21T06:41:19;101492.75;;;15.97;73.35
23433;BME280;41331;45.412;10.992;2022-09-21T06:43:47;101505.53;;;15.93;72.28
23433;BME280;41331;45.412;10.992;2022-09-21T06:46:14;101503.38;;;15.99;73.35
23433;BME280;41331;45.412;10.992;2022-09-21T06:48:42;101499.34;;;15.96;73.97
23433;BME280;41331;45.412;10.992;2022-09-21T06:51:09;101512.69;;;16.07;75.64
23433;BME280;41331;45.412;10.992;2022-09-21T06:53:36;101506.97;;;16.12;75.94
23433;BME280;41331;45.412;10.992;2022-09-21T06:56:08;101513.06;;;16.17;74.46
23433;BME280;41331;45.412;10.992;2022-09-21T06:58:36;101514.88;;;16.25;73.43
23433;BME280;41331;45.412;10.992;2022-09-21T07:01:06;101516.28;;;16.31;73.73
23433;BME280;41331;45.412;10.992;2022-09-21T07:03:34;101520.19;;;16.55;71.40
23433;BME280;41331;45.412;10.992;2022-09-21T07:06:01;101522.53;;;16.77;70.34
23433;BME280;41331;45.412;10.992;2022-09-21T07:08:28;101517.03;;;16.90;69.24
23433;BME280;41331;45.412;10.992;2022-09-21T07:11:16;101522.06;;;17.00;67.22
23433;BME280;41331;45.412;10.992;2022-09-21T07:13:43;101518.94;;;17.01;65.93
23433;BME280;41331;45.412;10.992;2022-09-21T07:16:11;101527.06;;;17.10;64.60
23433;BME280;41331;45.412;10.992;2022-09-21T07:18:39;101523.41;;;17.06;64.14
23433;BME280;41331;45.412;10.992;2022-09-21T07:21:10;101524.69;;;16.96;65.85
23433;BME280;41331;45.412;10.992;2022-09-21T07:23:38;101531.19;;;17.16;62.61
23433;BME280;41331;45.412;10.992;2022-09-21T07:26:11;101536.22;;;17.26;63.14
23433;BME280;41331;45.412;10.992;2022-09-21T07:28:41;101531.31;;;17.32;61.33
23433;BME280;41331;45.412;10.992;2022-09-21T07:31:12;101529.78;;;17.34;59.40
23433;BME280;41331;45.412;10.992;2022-09-21T07:33:43;101533.38;;;17.23;58.69
23433;BME280;41331;45.412;10.992;2022-09-21T07:36:13;101529.13;;;17.25;58.57
23433;BME280;41331;45.412;10.992;2022-09-21T07:38:42;101539.28;;;17.49;57.69
23433;BME280;41331;45.412;10.992;2022-09-21T07:41:11;101533.72;;;17.61;56.60
23433;BME280;41331;45.412;10.992;2022-09-21T07:43:39;101533.13;;;17.68;56.88
23433;BME280;41331;45.412;10.992;2022-09-21T07:46:09;101540.25;;;17.69;56.46
23433;BME280;41331;45.412;10.992;2022-09-21T07:48:37;101542.41;;;17.76;55.70
23433;BME280;41331;45.412;10.992;2022-09-21T07:51:08;101548.13;;;17.83;56.38
23433;BME280;41331;45.412;10.992;2022-09-21T07:53:38;101548.31;;;17.90;55.84
23433;BME280;41331;45.412;10.992;2022-09-21T07:56:10;101550.81;;;17.95;55.30
23433;BME280;41331;45.412;10.992;2022-09-21T07:58:38;101545.44;;;17.99;54.58
23433;BME280;41331;45.412;10.992;2022-09-21T08:01:24;101538.94;;;18.07;54.35
23433;BME280;41331;45.412;10.992;2022-09-21T08:03:54;101547.31;;;18.26;53.64
23433;BME280;41331;45.412;10.992;2022-09-21T08:06:24;101546.38;;;18.34;53.24
23433;BME280;41331;45.412;10.992;2022-09-21T08:08:53;101545.88;;;19.47;49.67
23433;BME280;41331;45.412;10.992;2022-09-21T08:11:25;101540.75;;;20.03;47.65
23433;BME280;41331;45.412;10.992;2022-09-21T08:13:56;101552.16;;;21.77;42.54
23433;BME280;41331;45.412;10.992;2022-09-21T08:16:25;101552.75;;;21.59;43.56
23433;BME280;41331;45.412;10.992;2022-09-21T08:18:52;101550.81;;;20.80;44.31
23433;BME280;41331;45.412;10.992;2022-09-21T08:21:20;101555.28;;;21.41;42.76
23433;BME280;41331;45.412;10.992;2022-09-21T08:23:48;101552.56;;;21.18;43.25
23433;BME280;41331;45.412;10.992;2022-09-21T08:26:18;101558.34;;;20.37;45.84
23433;BME280;41331;45.412;10.992;2022-09-21T08:28:47;101559.34;;;20.94;42.21
23433;BME280;41331;45.412;10.992;2022-09-21T08:31:17;101549.63;;;23.35;38.74
23433;BME280;41331;45.412;10.992;2022-09-21T08:33:46;101542.53;;;25.87;34.92
23433;BME280;41331;45.412;10.992;2022-09-21T08:36:14;101541.22;;;24.93;36.32
23433;BME280;41331;45.412;10.992;2022-09-21T08:38:41;101550.69;;;24.03;37.36
23433;BME280;41331;45.412;10.992;2022-09-21T08:44:06;101555.94;;;24.83;33.05
23433;BME280;41331;45.412;10.992;2022-09-21T08:46:37;101547.16;;;24.17;34.90
23433;BME280;41331;45.412;10.992;2022-09-21T08:49:09;101553.00;;;23.76;35.64
23433;BME280;41331;45.412;10.992;2022-09-21T08:51:47;101553.16;;;24.44;33.93
23433;BME280;41331;45.412;10.992;2022-09-21T08:56:53;101553.00;;;26.87;30.42
23433;BME280;41331;45.412;10.992;2022-09-21T08:59:33;101550.75;;;28.11;29.37
23433;BME280;41331;45.412;10.992;2022-09-21T09:04:44;101557.91;;;26.72;29.30
23433;BME280;41331;45.412;10.992;2022-09-21T09:07:34;101557.53;;;28.10;28.01
23433;BME280;41331;45.412;10.992;2022-09-21T09:10:32;101561.53;;;28.87;27.43
23433;BME280;41331;45.412;10.992;2022-09-21T09:13:37;101557.84;;;27.21;28.94
23433;BME280;41331;45.412;10.992;2022-09-21T09:21:37;101556.38;;;27.05;29.28
23433;BME280;41331;45.412;10.992;2022-09-21T09:27:18;101559.41;;;26.84;29.55
23433;BME280;41331;45.412;10.992;2022-09-21T09:30:02;101557.03;;;26.79;28.87
23433;BME280;41331;45.412;10.992;2022-09-21T09:35:32;101554.47;;;28.28;28.25
23433;BME280;41331;45.412;10.992;2022-09-21T09:38:31;101555.31;;;27.98;28.52
23433;BME280;41331;45.412;10.992;2022-09-21T09:44:17;101551.53;;;28.12;28.38
23433;BME280;41331;45.412;10.992;2022-09-21T09:52:19;101561.81;;;24.07;32.83
23433;BME280;41331;45.412;10.992;2022-09-21T09:54:47;101551.19;;;24.55;33.53
23433;BME280;41331;45.412;10.992;2022-09-21T09:57:22;101551.06;;;23.98;34.62
23433;BME280;41331;45.412;10.992;2022-09-21T09:59:53;101546.81;;;23.31;35.54
23433;BME280;41331;45.412;10.992;2022-09-21T10:02:26;101551.44;;;23.06;36.03
23433;BME280;41331;45.412;10.992;2022-09-21T10:04:59;101546.53;;;23.50;35.20
23433;BME280;41331;45.412;10.992;2022-09-21T10:07:43;101544.84;;;24.62;33.45
23433;BME280;41331;45.412;10.992;2022-09-21T10:13:10;101543.00;;;25.71;32.32
23433;BME280;41331;45.412;10.992;2022-09-21T10:15:49;101538.59;;;26.47;31.89
23433;BME280;41331;45.412;10.992;2022-09-21T10:18:31;101532.59;;;26.49;31.36
23433;BME280;41331;45.412;10.992;2022-09-21T10:21:05;101538.28;;;25.61;31.51
23433;BME280;41331;45.412;10.992;2022-09-21T10:23:33;101539.34;;;25.89;31.91
23433;BME280;41331;45.412;10.992;2022-09-21T10:26:08;101521.88;;;26.85;29.76
23433;BME280;41331;45.412;10.992;2022-09-21T10:28:36;101523.34;;;26.55;30.93
23433;BME280;41331;45.412;10.992;2022-09-21T10:33:47;101524.56;;;26.96;30.29
23433;BME280;41331;45.412;10.992;2022-09-21T10:36:35;101528.88;;;27.07;29.04
23433;BME280;41331;45.412;10.992;2022-09-21T10:39:20;101518.78;;;26.24;30.67
23433;BME280;41331;45.412;10.992;2022-09-21T10:42:17;101518.84;;;27.78;29.65
23433;BME280;41331;45.412;10.992;2022-09-21T10:45:03;101520.25;;;26.46;30.11
23433;BME280;41331;45.412;10.992;2022-09-21T10:47:38;101516.78;;;26.24;31.46
23433;BME280;41331;45.412;10.992;2022-09-21T10:52:49;101519.13;;;26.33;31.67
23433;BME280;41331;45.412;10.992;2022-09-21T10:55:21;101514.25;;;26.48;31.02
23433;BME280;41331;45.412;10.992;2022-09-21T10:57:50;101513.03;;;27.31;30.17
23433;BME280;41331;45.412;10.992;2022-09-21T11:02:51;101517.91;;;26.38;30.04
23433;BME280;41331;45.412;10.992;2022-09-21T11:05:32;101519.09;;;26.37;30.53
23433;BME280;41331;45.412;10.992;2022-09-21T11:08:12;101526.34;;;25.61;31.71
23433;BME280;41331;45.412;10.992;2022-09-21T11:10:50;101533.69;;;24.72;33.54
23433;BME280;41331;45.412;10.992;2022-09-21T11:13:43;101516.94;;;25.08;32.90
23433;BME280;41331;45.412;10.992;2022-09-21T11:16:35;101518.16;;;24.75;33.55
23433;BME280;41331;45.412;10.992;2022-09-21T11:19:37;101525.34;;;24.69;32.31
23433;BME280;41331;45.412;10.992;2022-09-21T11:36:19;101508.19;;;25.20;31.88
23433;BME280;41331;45.412;10.992;2022-09-21T11:44:56;101507.34;;;23.70;32.69
23433;BME280;41331;45.412;10.992;2022-09-21T11:55:45;101507.44;;;23.11;31.67
23433;BME280;41331;45.412;10.992;2022-09-21T11:58:23;101501.16;;;23.21;32.22
23433;BME280;41331;45.412;10.992;2022-09-21T12:01:05;101501.66;;;23.52;31.75
23433;BME280;41331;45.412;10.992;2022-09-21T12:04:16;101486.75;;;23.02;31.51
23433;BME280;41331;45.412;10.992;2022-09-21T12:06:58;101486.19;;;22.78;33.71
23433;BME280;41331;45.412;10.992;2022-09-21T12:15:06;101487.69;;;22.68;32.50
23433;BME280;41331;45.412;10.992;2022-09-21T12:18:02;101490.97;;;23.50;32.09
23433;BME280;41331;45.412;10.992;2022-09-21T12:20:57;101485.09;;;22.90;33.43
23433;BME280;41331;45.412;10.992;2022-09-21T12:24:01;101482.03;;;23.09;32.27
23433;BME280;41331;45.412;10.992;2022-09-21T12:26:39;101479.09;;;22.84;36.30
23433;BME280;41331;45.412;10.992;2022-09-21T12:29:15;101475.75;;;23.19;32.78
23433;BME280;41331;45.412;10.992;2022-09-21T12:31:58;101470.00;;;23.78;31.24
23433;BME280;41331;45.412;10.992;2022-09-21T12:34:38;101464.47;;;23.99;31.26
23433;BME280;41331;45.412;10.992;2022-09-21T12:37:22;101471.25;;;24.80;29.84
23433;BME280;41331;45.412;10.992;2022-09-21T12:40:14;101478.78;;;24.84;28.64
23433;BME280;41331;45.412;10.992;2022-09-21T12:43:00;101466.84;;;24.90;28.12
23433;BME280;41331;45.412;10.992;2022-09-21T12:45:36;101460.50;;;24.79;29.80
23433;BME280;41331;45.412;10.992;2022-09-21T12:50:46;101462.47;;;24.93;28.57
23433;BME280;41331;45.412;10.992;2022-09-21T12:53:19;101455.31;;;24.88;28.16
23433;BME280;41331;45.412;10.992;2022-09-21T12:56:02;101460.44;;;25.04;28.99
23433;BME280;41331;45.412;10.992;2022-09-21T13:09:29;101457.16;;;25.38;28.00
23433;BME280;41331;45.412;10.992;2022-09-21T13:12:00;101454.22;;;24.50;28.27
23433;BME280;41331;45.412;10.992;2022-09-21T13:14:33;101453.81;;;24.37;29.78
23433;BME280;41331;45.412;10.992;2022-09-21T13:17:02;101451.31;;;24.93;29.51
23433;BME280;41331;45.412;10.992;2022-09-21T13:19:33;101448.53;;;24.89;30.28
23433;BME280;41331;45.412;10.992;2022-09-21T13:22:12;101452.50;;;25.02;28.02
23433;BME280;41331;45.412;10.992;2022-09-21T13:24:42;101453.69;;;24.94;28.42
23433;BME280;41331;45.412;10.992;2022-09-21T13:27:11;101450.97;;;24.73;27.47
23433;BME280;41331;45.412;10.992;2022-09-21T13:29:41;101446.16;;;24.91;27.26
23433;BME280;41331;45.412;10.992;2022-09-21T13:34:43;101441.84;;;24.08;30.58
23433;BME280;41331;45.412;10.992;2022-09-21T13:45:01;101439.50;;;24.39;30.56
23433;BME280;41331;45.412;10.992;2022-09-21T13:47:36;101434.28;;;24.62;30.37
23433;BME280;41331;45.412;10.992;2022-09-21T13:50:25;101438.69;;;24.38;30.07
23433;BME280;41331;45.412;10.992;2022-09-21T13:52:59;101433.47;;;23.72;31.14
23433;BME280;41331;45.412;10.992;2022-09-21T13:55:32;101432.56;;;23.36;31.40
23433;BME280;41331;45.412;10.992;2022-09-21T13:58:06;101430.13;;;23.24;31.34
23433;BME280;41331;45.412;10.992;2022-09-21T14:03:23;101432.31;;;23.91;28.82
23433;BME280;41331;45.412;10.992;2022-09-21T14:08:58;101425.94;;;23.84;29.24
23433;BME280;41331;45.412;10.992;2022-09-21T14:11:49;101427.09;;;23.68;28.69
23433;BME280;41331;45.412;10.992;2022-09-21T14:14:29;101425.97;;;23.98;28.45
23433;BME280;41331;45.412;10.992;2022-09-21T14:16:59;101421.97;;;23.88;29.63
23433;BME280;41331;45.412;10.992;2022-09-21T14:24:42;101418.00;;;23.89;27.84
23433;BME280;41331;45.412;10.992;2022-09-21T14:27:25;101427.16;;;23.93;30.66
23433;BME280;41331;45.412;10.992;2022-09-21T14:29:58;101420.81;;;23.96;30.44
23433;BME280;41331;45.412;10.992;2022-09-21T14:32:42;101415.22;;;23.93;30.00
23433;BME280;41331;45.412;10.992;2022-09-21T14:35:17;101414.88;;;24.41;28.97
23433;BME280;41331;45.412;10.992;2022-09-21T14:37:50;101412.75;;;23.59;29.36
23433;BME280;41331;45.412;10.992;2022-09-21T14:40:31;101417.19;;;23.71;29.54
23433;BME280;41331;45.412;10.992;2022-09-21T14:43:06;101413.97;;;23.58;30.04
23433;BME280;41331;45.412;10.992;2022-09-21T14:49:28;101424.72;;;23.67;29.60
23433;BME280;41331;45.412;10.992;2022-09-21T15:02:43;101416.28;;;22.58;31.37
23433;BME280;41331;45.412;10.992;2022-09-21T15:06:00;101415.19;;;22.70;32.17
23433;BME280;41331;45.412;10.992;2022-09-21T15:11:39;101418.19;;;22.47;31.82
23433;BME280;41331;45.412;10.992;2022-09-21T15:14:21;101417.03;;;22.52;31.51
23433;BME280;41331;45.412;10.992;2022-09-21T15:16:53;101417.69;;;22.31;31.32
23433;BME280;41331;45.412;10.992;2022-09-21T15:19:25;101415.66;;;21.83;32.68
23433;BME280;41331;45.412;10.992;2022-09-21T15:21:55;101416.59;;;21.57;36.27
23433;BME280;41331;45.412;10.992;2022-09-21T15:24:32;101417.44;;;21.61;35.71
23433;BME280;41331;45.412;10.992;2022-09-21T15:27:06;101412.66;;;22.03;33.82
23433;BME280;41331;45.412;10.992;2022-09-21T15:29:36;101419.91;;;22.11;33.51
23433;BME280;41331;45.412;10.992;2022-09-21T15:32:07;101417.25;;;22.29;34.21
23433;BME280;41331;45.412;10.992;2022-09-21T15:34:34;101411.81;;;22.43;32.14
23433;BME280;41331;45.412;10.992;2022-09-21T15:37:06;101407.31;;;22.20;32.10
23433;BME280;41331;45.412;10.992;2022-09-21T15:39:34;101407.16;;;22.06;33.34
23433;BME280;41331;45.412;10.992;2022-09-21T15:42:18;101421.81;;;22.07;32.48
23433;BME280;41331;45.412;10.992;2022-09-21T15:44:58;101417.56;;;22.16;32.54
23433;BME280;41331;45.412;10.992;2022-09-21T15:47:32;101415.63;;;22.20;32.46
23433;BME280;41331;45.412;10.992;2022-09-21T15:50:00;101417.13;;;22.11;31.99
23433;BME280;41331;45.412;10.992;2022-09-21T15:52:37;101419.16;;;22.17;32.40
23433;BME280;41331;45.412;10.992;2022-09-21T15:55:15;101416.44;;;22.21;32.36
23433;BME280;41331;45.412;10.992;2022-09-21T15:57:49;101418.41;;;21.80;32.77
23433;BME280;41331;45.412;10.992;2022-09-21T16:00:20;101413.25;;;21.78;33.33